createdAt,value
2022-11-23T00:01:38.056Z,25.10
2022-11-23T00:04:07.922Z,25.13
2022-11-23T00:06:36.340Z,26.87
2022-11-23T00:09:05.142Z,25.07
2022-11-23T00:11:35.970Z,27.27
2022-11-23T00:14:04.898Z,26.43
2022-11-23T00:16:33.076Z,24.90
2022-11-23T00:19:02.435Z,25.40
2022-11-23T00:21:33.209Z,25.70
2022-11-23T00:24:01.930Z,26.23
2022-11-23T00:26:30.025Z,27.10
2022-11-23T00:28:59.662Z,27.03
2022-11-23T00:31:28.926Z,23.73
2022-11-23T00:33:58.629Z,27.30
2022-11-23T00:36:28.450Z,26.03
2022-11-23T00:38:57.951Z,25.83
2022-11-23T00:41:28.224Z,25.40
2022-11-23T00:43:56.783Z,25.23
2022-11-23T00:46:28.084Z,25.23
2022-11-23T00:48:58.475Z,28.43
2022-11-23T00:51:29.651Z,26.23
2022-11-23T00:53:59.558Z,23.60
2022-11-23T00:56:28.740Z,24.03
2022-11-23T00:58:58.827Z,26.00
2022-11-23T01:01:30.972Z,25.13
2022-11-23T01:04:00.713Z,25.53
2022-11-23T01:06:33.215Z,26.60
2022-11-23T01:09:05.744Z,24.13
2022-11-23T01:11:34.191Z,27.67
2022-11-23T01:14:03.208Z,24.17
2022-11-23T01:16:34.384Z,25.90
2022-11-23T01:19:04.688Z,27.40
2022-11-23T01:21:33.907Z,24.50
2022-11-23T01:24:05.822Z,24.57
2022-11-23T01:26:34.170Z,27.33
2022-11-23T01:29:02.626Z,25.60
2022-11-23T01:31:32.203Z,25.90
2022-11-23T01:34:02.815Z,27.33
2022-11-23T01:36:32.523Z,24.03
2022-11-23T01:39:01.896Z,25.83
2022-11-23T01:41:32.431Z,27.57
2022-11-23T01:44:01.408Z,25.30
2022-11-23T01:46:29.400Z,22.97
2022-11-23T01:49:02.894Z,26.13
2022-11-23T01:51:35.608Z,25.67
2022-11-23T01:54:08.339Z,25.87
2022-11-23T01:56:39.982Z,27.03
2022-11-23T01:59:13.532Z,26.57
2022-11-23T02:01:41.600Z,24.43
2022-11-23T02:04:15.640Z,25.53
2022-11-23T02:06:48.341Z,25.67
2022-11-23T02:09:18.354Z,28.67
2022-11-23T02:11:46.614Z,26.67
2022-11-23T02:14:20.481Z,23.03
2022-11-23T02:16:51.483Z,24.00
2022-11-23T02:19:33.124Z,25.63
2022-11-23T02:22:01.444Z,24.80
2022-11-23T02:24:35.188Z,26.30
2022-11-23T02:27:06.881Z,26.97
2022-11-23T02:29:35.915Z,25.27
2022-11-23T02:32:04.113Z,25.63
2022-11-23T02:34:32.405Z,26.17
2022-11-23T02:37:02.121Z,26.87
2022-11-23T02:39:35.365Z,25.53
2022-11-23T02:42:06.996Z,28.43
2022-11-23T02:44:42.637Z,29.60
2022-11-23T02:47:11.553Z,25.20
2022-11-23T02:49:42.315Z,28.97
2022-11-23T02:52:10.676Z,25.70
2022-11-23T02:54:39.122Z,27.27
2022-11-23T02:57:08.894Z,25.63
2022-11-23T02:59:37.682Z,26.70
2022-11-23T03:02:07.838Z,27.80
2022-11-23T03:04:37.109Z,26.73
2022-11-23T03:07:05.395Z,28.23
2022-11-23T03:09:34.576Z,25.63
2022-11-23T03:12:03.715Z,25.80
2022-11-23T03:14:33.419Z,28.27
2022-11-23T03:17:02.159Z,27.83
2022-11-23T03:19:36.192Z,25.50
2022-11-23T03:22:05.035Z,25.33
2022-11-23T03:24:33.468Z,26.97
2022-11-23T03:27:04.010Z,26.00
2022-11-23T03:29:34.194Z,24.67
2022-11-23T03:32:08.086Z,27.07
2022-11-23T03:34:36.618Z,24.97
2022-11-23T03:37:05.694Z,24.63
2022-11-23T03:39:34.465Z,25.63
2022-11-23T03:42:22.594Z,26.37
2022-11-23T03:44:52.392Z,24.77
2022-11-23T03:47:20.540Z,24.47
2022-11-23T03:49:49.759Z,27.07
2022-11-23T03:52:17.961Z,24.27
2022-11-23T03:54:47.097Z,25.03
2022-11-23T03:57:15.693Z,26.60
2022-11-23T03:59:44.046Z,24.50
2022-11-23T04:02:15.003Z,23.87
2022-11-23T04:04:51.830Z,24.43
2022-11-23T04:07:54.723Z,25.73
2022-11-23T04:10:26.416Z,25.20
2022-11-23T04:13:16.563Z,26.57
2022-11-23T04:15:44.935Z,24.90
2022-11-23T04:18:14.320Z,25.87
2022-11-23T04:20:42.769Z,26.67
2022-11-23T04:23:13.497Z,23.63
2022-11-23T04:25:43.090Z,26.53
2022-11-23T04:28:11.489Z,25.93
2022-11-23T04:30:40.234Z,25.17
2022-11-23T04:33:08.525Z,26.30
2022-11-23T04:35:38.864Z,27.80
2022-11-23T04:38:07.758Z,25.20
2022-11-23T04:40:36.071Z,25.67
2022-11-23T04:43:06.516Z,27.00
2022-11-23T04:45:39.469Z,28.43
2022-11-23T04:48:11.164Z,27.33
2022-11-23T04:50:43.030Z,26.60
2022-11-23T04:53:15.693Z,26.83
2022-11-23T04:55:48.173Z,26.87
2022-11-23T04:58:17.840Z,27.10
2022-11-23T05:00:49.098Z,28.27
2022-11-23T05:03:17.622Z,27.53
2022-11-23T05:05:47.395Z,27.80
2022-11-23T05:08:15.413Z,29.73
2022-11-23T05:10:52.493Z,28.50
2022-11-23T05:13:20.873Z,27.63
2022-11-23T05:15:50.294Z,25.97
2022-11-23T05:18:24.298Z,28.50
2022-11-23T05:20:54.122Z,28.60
2022-11-23T05:23:22.737Z,27.43
2022-11-23T05:25:53.942Z,26.27
2022-11-23T05:28:39.626Z,27.10
2022-11-23T05:31:10.704Z,27.70
2022-11-23T05:33:39.028Z,26.57
2022-11-23T05:36:14.004Z,26.03
2022-11-23T05:38:43.333Z,25.60
2022-11-23T05:41:21.214Z,27.37
2022-11-23T05:43:52.726Z,24.53
2022-11-23T05:46:25.160Z,27.30
2022-11-23T05:48:53.865Z,27.73
2022-11-23T05:51:23.968Z,26.20
2022-11-23T05:53:52.280Z,26.87
2022-11-23T05:56:28.908Z,26.30
2022-11-23T05:59:12.484Z,26.10
2022-11-23T06:01:43.323Z,26.00
2022-11-23T06:04:14.821Z,26.73
2022-11-23T06:06:48.057Z,26.23
2022-11-23T06:09:16.377Z,25.20
2022-11-23T06:11:48.269Z,26.33
2022-11-23T06:14:19.867Z,23.97
2022-11-23T06:16:49.371Z,22.77
2022-11-23T06:19:30.592Z,25.27
2022-11-23T06:22:01.289Z,23.33
2022-11-23T06:24:32.819Z,25.57
2022-11-23T06:27:33.482Z,24.37
2022-11-23T06:30:05.404Z,25.23
2022-11-23T06:32:34.675Z,25.87
2022-11-23T06:35:03.717Z,26.00
2022-11-23T06:37:36.994Z,24.73
2022-11-23T06:40:05.687Z,25.20
2022-11-23T06:42:39.771Z,23.33
2022-11-23T06:45:14.988Z,25.63
2022-11-23T06:47:43.809Z,27.70
2022-11-23T06:50:13.935Z,25.50
2022-11-23T06:52:43.647Z,24.70
2022-11-23T06:55:11.732Z,24.70
2022-11-23T06:57:40.151Z,26.00
2022-11-23T07:00:12.197Z,25.83
2022-11-23T07:02:40.798Z,24.10
2022-11-23T07:05:10.460Z,23.70
2022-11-23T07:07:40.015Z,23.60
2022-11-23T07:10:16.046Z,24.83
2022-11-23T07:12:47.731Z,23.90
2022-11-23T07:15:18.684Z,24.03
2022-11-23T07:17:47.666Z,23.13
2022-11-23T07:20:16.142Z,26.83
2022-11-23T07:22:45.982Z,26.23
2022-11-23T07:25:18.428Z,24.13
2022-11-23T07:27:47.071Z,24.23
2022-11-23T07:30:16.233Z,24.33
2022-11-23T07:32:44.683Z,25.97
2022-11-23T07:35:13.294Z,24.83
2022-11-23T07:37:45.261Z,24.10
2022-11-23T07:40:15.713Z,25.17
2022-11-23T07:42:45.785Z,27.40
2022-11-23T07:45:15.163Z,26.13
2022-11-23T07:47:46.817Z,25.77
2022-11-23T07:50:15.666Z,25.63
2022-11-23T07:52:44.014Z,23.93
2022-11-23T07:55:12.031Z,25.67
2022-11-23T07:57:41.828Z,25.87
2022-11-23T08:00:12.102Z,25.83
2022-11-23T08:02:53.046Z,25.40
2022-11-23T08:05:29.930Z,23.27
2022-11-23T08:08:02.626Z,23.40
2022-11-23T08:10:32.360Z,24.80
2022-11-23T08:13:04.602Z,25.03
2022-11-23T08:15:33.613Z,25.50
2022-11-23T08:18:04.042Z,26.90
2022-11-23T08:20:34.280Z,25.20
2022-11-23T08:23:02.640Z,25.00
2022-11-23T08:25:31.306Z,25.77
2022-11-23T08:28:02.890Z,26.53
2022-11-23T08:30:33.036Z,25.40
2022-11-23T08:33:04.600Z,24.57
2022-11-23T08:35:34.532Z,27.07
2022-11-23T08:38:03.056Z,26.47
2022-11-23T08:40:31.309Z,25.37
2022-11-23T08:42:59.920Z,24.50
2022-11-23T08:45:30.351Z,24.50
2022-11-23T08:48:00.948Z,23.30
2022-11-23T08:50:30.386Z,24.73
2022-11-23T08:53:00.255Z,24.10
2022-11-23T08:55:29.484Z,22.10
2022-11-23T08:57:58.566Z,24.97
2022-11-23T09:00:27.256Z,24.10
2022-11-23T09:02:58.922Z,25.30
2022-11-23T09:05:28.026Z,26.70
2022-11-23T09:07:57.023Z,25.93
2022-11-23T09:10:25.082Z,25.00
2022-11-23T09:12:53.605Z,24.37
2022-11-23T09:15:22.401Z,25.20
2022-11-23T09:17:50.834Z,24.97
2022-11-23T09:20:20.444Z,25.47
2022-11-23T09:22:52.448Z,23.63
2022-11-23T09:25:21.332Z,25.67
2022-11-23T09:27:49.873Z,26.13
2022-11-23T09:30:18.590Z,23.37
2022-11-23T09:32:47.385Z,23.20
2022-11-23T09:35:15.704Z,24.87
2022-11-23T09:37:45.438Z,25.33
2022-11-23T09:40:17.120Z,24.00
2022-11-23T09:43:09.217Z,25.77
2022-11-23T09:45:44.382Z,24.63
2022-11-23T09:48:38.923Z,23.40
2022-11-23T09:51:15.491Z,24.93
2022-11-23T09:53:50.929Z,24.80
2022-11-23T09:56:22.810Z,25.23
2022-11-23T09:58:54.440Z,24.47
2022-11-23T10:01:22.963Z,23.43
2022-11-23T10:03:52.069Z,25.43
2022-11-23T10:06:22.668Z,23.10
2022-11-23T10:09:02.668Z,25.27
2022-11-23T10:11:50.354Z,24.30
2022-11-23T10:14:37.004Z,26.30
2022-11-23T10:17:11.638Z,24.50
2022-11-23T10:19:53.854Z,24.90
2022-11-23T10:22:27.530Z,24.80
2022-11-23T10:24:57.369Z,26.13
2022-11-23T10:27:26.125Z,28.27
2022-11-23T10:29:56.479Z,27.10
2022-11-23T10:32:31.572Z,29.40
2022-11-23T10:35:05.131Z,28.70
2022-11-23T10:37:34.301Z,26.83
2022-11-23T10:40:04.041Z,25.37
2022-11-23T10:42:37.288Z,23.97
2022-11-23T10:45:06.831Z,25.53
2022-11-23T10:47:40.904Z,24.50
2022-11-23T10:50:24.380Z,25.20
2022-11-23T10:52:55.373Z,24.47
2022-11-23T10:55:29.115Z,24.60
2022-11-23T10:57:58.025Z,23.50
2022-11-23T11:00:30.924Z,25.37
2022-11-23T11:03:00.771Z,24.00
2022-11-23T11:08:22.808Z,24.20
2022-11-23T11:11:00.037Z,25.13
2022-11-23T11:13:31.804Z,24.27
2022-11-23T11:16:02.218Z,25.10
2022-11-23T11:18:32.790Z,26.40
2022-11-23T11:21:04.990Z,24.47
2022-11-23T11:23:35.818Z,25.53
2022-11-23T11:26:18.187Z,25.47
2022-11-23T11:28:50.101Z,25.00
2022-11-23T11:31:50.399Z,26.33
2022-11-23T11:34:23.441Z,25.30
2022-11-23T11:36:59.688Z,25.87
2022-11-23T11:39:34.717Z,26.57
2022-11-23T11:42:08.101Z,26.17
2022-11-23T11:44:41.373Z,26.00
2022-11-23T11:47:24.027Z,26.33
2022-11-23T11:49:55.028Z,26.40
2022-11-23T11:52:28.040Z,25.13
2022-11-23T11:55:05.266Z,25.73
2022-11-23T11:57:38.234Z,26.40
2022-11-23T12:00:14.419Z,25.50
2022-11-23T12:02:52.888Z,26.73
2022-11-23T12:05:25.727Z,27.10
2022-11-23T12:08:03.237Z,28.20
2022-11-23T12:10:37.720Z,27.27
2022-11-23T12:13:12.914Z,27.87
2022-11-23T12:15:50.518Z,26.23
2022-11-23T12:18:45.651Z,27.43
2022-11-23T12:21:34.862Z,28.80
2022-11-23T12:24:11.363Z,26.97
2022-11-23T12:26:50.188Z,29.17
2022-11-23T12:29:36.572Z,31.63
2022-11-23T12:32:17.954Z,27.30
2022-11-23T12:35:06.069Z,25.63
2022-11-23T12:37:43.795Z,25.40
2022-11-23T12:40:43.408Z,28.73
2022-11-23T12:43:15.215Z,28.87
2022-11-23T12:46:11.726Z,27.97
2022-11-23T12:48:57.456Z,29.23
2022-11-23T12:51:35.637Z,27.43
2022-11-23T12:54:18.817Z,27.60
2022-11-23T12:57:09.515Z,30.37
2022-11-23T12:59:45.927Z,30.67
2022-11-23T13:02:36.795Z,31.27
2022-11-23T13:05:50.508Z,27.90
2022-11-23T13:08:49.819Z,28.20
2022-11-23T13:11:28.272Z,29.03
2022-11-23T13:14:08.631Z,26.30
2022-11-23T13:16:58.704Z,26.13
2022-11-23T13:19:48.712Z,28.07
2022-11-23T13:22:19.964Z,28.80
2022-11-23T13:25:04.358Z,28.63
2022-11-23T13:27:44.601Z,28.53
2022-11-23T13:30:45.633Z,30.83
2022-11-23T13:33:31.801Z,29.47
2022-11-23T13:36:11.509Z,28.73
2022-11-23T13:38:44.927Z,27.43
2022-11-23T13:41:53.470Z,27.73
2022-11-23T13:44:24.258Z,28.83
2022-11-23T13:47:07.895Z,30.10
2022-11-23T13:49:42.157Z,29.70
2022-11-23T13:52:28.344Z,29.03
2022-11-23T13:55:07.418Z,31.37
2022-11-23T13:57:38.301Z,32.70
2022-11-23T14:00:44.164Z,32.00
2022-11-23T14:03:48.815Z,33.27
2022-11-23T14:06:34.224Z,34.07
2022-11-23T14:09:10.414Z,33.97
2022-11-23T14:11:50.435Z,32.07
2022-11-23T14:14:23.486Z,34.30
2022-11-23T14:17:11.461Z,30.63
2022-11-23T14:19:51.992Z,30.40
2022-11-23T14:22:30.142Z,31.70
2022-11-23T14:25:18.737Z,33.03
2022-11-23T14:27:58.648Z,32.63
2022-11-23T14:30:46.327Z,33.90
2022-11-23T14:33:27.000Z,31.67
2022-11-23T14:36:07.165Z,32.03
2022-11-23T14:39:05.537Z,33.43
2022-11-23T14:41:37.422Z,32.20
2022-11-23T14:44:06.972Z,33.23
2022-11-23T14:46:35.291Z,32.03
2022-11-23T14:49:08.247Z,32.97
2022-11-23T14:51:42.476Z,31.73
2022-11-23T14:54:12.503Z,35.17
2022-11-23T14:56:45.300Z,35.03
2022-11-23T14:59:21.869Z,33.97
2022-11-23T15:01:54.028Z,33.80
2022-11-23T15:04:29.000Z,33.10
2022-11-23T15:07:01.479Z,34.67
2022-11-23T15:09:41.790Z,34.83
2022-11-23T15:12:24.382Z,35.17
2022-11-23T15:14:53.940Z,32.17
2022-11-23T15:17:23.605Z,29.70
2022-11-23T15:19:56.826Z,30.13
2022-11-23T15:22:25.632Z,30.27
2022-11-23T15:24:54.053Z,31.20
2022-11-23T15:27:28.586Z,31.70
2022-11-23T15:29:58.240Z,32.37
2022-11-23T15:32:31.556Z,33.10
2022-11-23T15:35:06.792Z,31.20
2022-11-23T15:37:40.355Z,30.50
2022-11-23T15:40:13.912Z,33.80
2022-11-23T15:42:44.411Z,31.43
2022-11-23T15:45:35.411Z,31.70
2022-11-23T15:48:05.313Z,32.50
2022-11-23T15:50:34.335Z,31.93
2022-11-23T15:53:03.598Z,29.80
2022-11-23T15:55:31.966Z,30.90
2022-11-23T15:58:07.691Z,30.17
2022-11-23T16:00:36.430Z,29.83
2022-11-23T16:03:30.689Z,30.50
2022-11-23T16:06:20.035Z,30.97
2022-11-23T16:08:48.539Z,28.53
2022-11-23T16:11:33.788Z,30.77
2022-11-23T16:14:15.755Z,29.07
2022-11-23T16:16:46.329Z,30.37
2022-11-23T16:19:27.903Z,29.67
2022-11-23T16:22:02.250Z,31.57
2022-11-23T16:24:34.983Z,36.03
2022-11-23T16:27:13.114Z,33.43
2022-11-23T16:29:43.155Z,32.50
2022-11-23T16:32:26.847Z,30.63
2022-11-23T16:34:55.888Z,31.70
2022-11-23T16:37:25.688Z,31.70
2022-11-23T16:39:54.050Z,30.63
2022-11-23T16:42:22.104Z,31.47
2022-11-23T16:44:51.876Z,32.83
2022-11-23T16:47:23.515Z,31.83
2022-11-23T16:49:52.755Z,32.03
2022-11-23T16:52:21.805Z,28.20
2022-11-23T16:54:51.006Z,29.67
2022-11-23T16:57:25.021Z,29.67
2022-11-23T16:59:54.937Z,30.60
2022-11-23T17:02:23.516Z,30.83
2022-11-23T17:04:51.988Z,29.40
2022-11-23T17:07:20.119Z,31.20
2022-11-23T17:09:48.605Z,29.20
2022-11-23T17:12:20.677Z,28.90
2022-11-23T17:14:50.454Z,28.77
2022-11-23T17:17:22.033Z,29.30
2022-11-23T17:19:51.913Z,30.73
2022-11-23T17:22:20.983Z,29.77
2022-11-23T17:24:52.572Z,30.47
2022-11-23T17:27:24.255Z,29.77
2022-11-23T17:29:58.018Z,28.50
2022-11-23T17:32:27.639Z,31.03
2022-11-23T17:34:56.134Z,29.60
2022-11-23T17:37:25.360Z,29.37
2022-11-23T17:39:54.011Z,29.67
2022-11-23T17:42:22.091Z,31.73
2022-11-23T17:44:50.571Z,32.40
2022-11-23T17:47:24.791Z,31.60
2022-11-23T17:49:54.572Z,31.07
2022-11-23T17:52:22.957Z,30.40
2022-11-23T17:54:51.337Z,30.93
2022-11-23T17:57:22.786Z,30.80
2022-11-23T17:59:51.392Z,30.27
2022-11-23T18:02:19.843Z,30.53
2022-11-23T18:04:48.673Z,31.47
2022-11-23T18:07:18.629Z,29.63
2022-11-23T18:09:47.122Z,29.90
2022-11-23T18:12:15.264Z,33.50
2022-11-23T18:14:43.620Z,34.87
2022-11-23T18:17:11.658Z,34.33
2022-11-23T18:19:40.043Z,32.83
2022-11-23T18:22:08.125Z,32.83
2022-11-23T18:24:37.880Z,29.97
2022-11-23T18:27:06.014Z,28.97
2022-11-23T18:29:36.398Z,27.83
2022-11-23T18:32:06.639Z,27.90
2022-11-23T18:34:35.507Z,28.70
2022-11-23T18:37:03.765Z,29.60
2022-11-23T18:39:32.593Z,29.70
2022-11-23T18:42:05.743Z,27.17
2022-11-23T18:44:35.223Z,27.17
2022-11-23T18:47:03.459Z,24.80
2022-11-23T18:49:32.585Z,26.13
2022-11-23T18:52:01.156Z,24.03
2022-11-23T18:54:29.734Z,24.50
2022-11-23T18:56:58.324Z,25.53
2022-11-23T18:59:57.038Z,25.43
2022-11-23T19:02:18.327Z,22.83
2022-11-23T19:04:49.844Z,24.73
2022-11-23T19:07:23.567Z,25.07
2022-11-23T19:10:01.170Z,23.13
2022-11-23T19:12:30.751Z,24.50
2022-11-23T19:15:00.674Z,24.83
2022-11-23T19:17:30.463Z,26.80
2022-11-23T19:20:01.574Z,24.80
2022-11-23T19:22:30.969Z,28.80
2022-11-23T19:24:59.858Z,26.67
2022-11-23T19:27:28.129Z,27.00
2022-11-23T19:29:56.602Z,25.53
2022-11-23T19:32:26.243Z,25.67
2022-11-23T19:34:55.953Z,24.27
2022-11-23T19:37:24.509Z,23.67
2022-11-23T19:39:52.874Z,23.57
2022-11-23T19:42:21.470Z,25.23
2022-11-23T19:44:49.949Z,25.83
2022-11-23T19:47:22.725Z,24.83
2022-11-23T19:49:53.476Z,26.33
2022-11-23T19:52:21.602Z,28.50
2022-11-23T19:54:50.234Z,25.33
2022-11-23T19:57:18.439Z,24.73
2022-11-23T19:59:48.771Z,25.13
2022-11-23T20:02:26.429Z,24.83
2022-11-23T20:04:58.760Z,25.73
2022-11-23T20:07:27.080Z,25.03
2022-11-23T20:09:55.682Z,25.00
2022-11-23T20:12:25.924Z,23.57
2022-11-23T20:14:56.733Z,25.73
2022-11-23T20:17:29.348Z,25.37
2022-11-23T20:20:23.392Z,25.53
2022-11-23T20:23:01.921Z,25.30
2022-11-23T20:25:40.868Z,25.40
2022-11-23T20:28:13.322Z,26.07
2022-11-23T20:30:51.009Z,27.07
2022-11-23T20:33:19.701Z,26.70
2022-11-23T20:35:49.663Z,27.47
2022-11-23T20:38:18.446Z,28.40
2022-11-23T20:40:46.780Z,27.60
2022-11-23T20:43:14.963Z,27.80
2022-11-23T20:45:44.127Z,26.63
2022-11-23T20:48:12.279Z,26.20
2022-11-23T20:50:41.634Z,27.80
2022-11-23T20:53:11.125Z,26.00
2022-11-23T20:55:42.574Z,26.43
2022-11-23T20:58:13.229Z,27.77
2022-11-23T21:00:47.362Z,26.00
2022-11-23T21:03:19.583Z,28.83
2022-11-23T21:05:48.217Z,28.87
2022-11-23T21:08:27.865Z,25.40
2022-11-23T21:11:24.001Z,26.80
2022-11-23T21:14:15.663Z,26.40
2022-11-23T21:16:53.213Z,25.70
2022-11-23T21:19:22.825Z,24.83
2022-11-23T21:21:51.449Z,27.50
2022-11-23T21:24:28.192Z,26.10
2022-11-23T21:26:56.766Z,25.67
2022-11-23T21:29:25.936Z,26.33
2022-11-23T21:31:54.532Z,26.10
2022-11-23T21:34:27.841Z,27.37
2022-11-23T21:36:57.850Z,28.10
2022-11-23T21:39:33.349Z,30.27
2022-11-23T21:42:05.737Z,24.77
2022-11-23T21:44:34.206Z,26.57
2022-11-23T21:47:03.195Z,26.83
2022-11-23T21:49:34.481Z,27.17
2022-11-23T21:52:03.242Z,27.63
2022-11-23T21:54:32.845Z,26.93
2022-11-23T21:57:01.762Z,27.47
2022-11-23T21:59:30.160Z,26.80
2022-11-23T22:02:00.330Z,27.23
2022-11-23T22:04:28.526Z,25.93
2022-11-23T22:06:57.850Z,26.90
2022-11-23T22:09:26.536Z,27.40
2022-11-23T22:11:55.960Z,27.23
2022-11-23T22:14:24.408Z,24.67
2022-11-23T22:16:53.705Z,27.83
2022-11-23T22:19:22.335Z,26.47
2022-11-23T22:21:50.510Z,25.87
2022-11-23T22:24:21.180Z,27.00
2022-11-23T22:26:49.717Z,26.63
2022-11-23T22:29:19.491Z,27.83
2022-11-23T22:31:47.596Z,27.17
2022-11-23T22:34:16.378Z,27.83
2022-11-23T22:36:44.544Z,28.07
2022-11-23T22:39:12.966Z,29.33
2022-11-23T22:41:41.702Z,29.20
2022-11-23T22:44:11.616Z,27.63
2022-11-23T22:46:41.130Z,25.10
2022-11-23T22:49:09.738Z,27.03
2022-11-23T22:51:38.030Z,26.90
2022-11-23T22:54:06.605Z,27.23
2022-11-23T22:56:34.793Z,27.00
2022-11-23T22:59:03.435Z,30.27
2022-11-23T23:01:32.624Z,29.83
2022-11-23T23:04:03.442Z,27.03
2022-11-23T23:06:34.772Z,29.00
2022-11-23T23:09:06.698Z,29.27
2022-11-23T23:11:36.671Z,28.40
2022-11-23T23:14:05.911Z,29.23
2022-11-23T23:16:34.585Z,29.30
2022-11-23T23:19:04.680Z,27.50
2022-11-23T23:21:32.971Z,28.23
2022-11-23T23:24:02.209Z,30.77
2022-11-23T23:26:30.968Z,29.57
2022-11-23T23:29:02.331Z,29.00
2022-11-23T23:31:31.416Z,30.50
2022-11-23T23:34:00.760Z,30.10
2022-11-23T23:36:31.954Z,31.00
2022-11-23T23:39:03.934Z,31.37
2022-11-23T23:41:32.435Z,29.07
2022-11-23T23:44:01.310Z,30.57
2022-11-23T23:46:29.554Z,29.90
2022-11-23T23:49:00.635Z,29.87
2022-11-23T23:51:29.996Z,30.53
2022-11-23T23:53:58.930Z,28.73
2022-11-23T23:56:29.256Z,31.40
2022-11-23T23:58:59.109Z,29.93
